Time;durP1;ratioP1;P1;durP2;ratioP2;P2;SDS_P1;SDS_P2;PMS_P1;PMS_P2;Temp;Humidity;BMP_temperature;BMP_pressure;BME280_temperature;BME280_humidity;BME280_pressure;Samples;Min_cycle;Max_cycle;Signal;HPM_P1;HPM_P2
2022/04/17 00:01:15;;;;;;;3.10;2.90;;;6.60;98.60;;;;;;484716;245;29354;-71
2022/04/17 00:03:16;;;;;;;2.70;2.50;;;6.50;98.50;;;;;;484656;245;28404;-73
2022/04/17 00:05:17;;;;;;;2.85;2.65;;;6.50;98.70;;;;;;484694;245;27502;-72
2022/04/17 00:07:19;;;;;;;3.05;2.85;;;6.40;98.90;;;;;;484692;245;28039;-74
2022/04/17 00:09:26;;;;;;;2.87;2.78;;;6.40;98.90;;;;;;484680;245;28027;-72
2022/04/17 00:11:27;;;;;;;3.00;2.80;;;6.40;99.30;;;;;;484688;245;27528;-72
2022/04/17 00:13:31;;;;;;;3.00;2.72;;;6.40;99.60;;;;;;484692;245;27942;-73
2022/04/17 00:15:32;;;;;;;3.10;2.50;;;6.40;99.30;;;;;;484693;245;27487;-73
2022/04/17 00:17:51;;;;;;;3.20;2.90;;;6.40;99.30;;;;;;484658;245;27972;-73
2022/04/17 00:19:38;;;;;;;2.80;2.70;;;6.30;99.60;;;;;;482771;245;27610;-73
2022/04/17 00:21:39;;;;;;;2.87;2.78;;;6.30;99.60;;;;;;484671;245;28355;-72
2022/04/17 00:23:49;;;;;;;4.40;3.22;;;6.30;99.90;;;;;;484682;245;27982;-72
2022/04/17 00:25:50;;;;;;;3.00;2.70;;;6.30;99.90;;;;;;484711;245;27508;-70
2022/04/17 00:27:51;;;;;;;4.05;2.97;;;6.30;99.90;;;;;;484659;245;28077;-74
2022/04/17 00:29:53;;;;;;;3.08;2.87;;;6.30;99.90;;;;;;484627;245;27965;-73
2022/04/17 00:31:54;;;;;;;2.92;2.47;;;6.20;99.90;;;;;;484653;245;27531;-73
2022/04/17 00:33:55;;;;;;;3.10;2.90;;;6.20;99.90;;;;;;484673;245;27549;-73
2022/04/17 00:35:59;;;;;;;3.50;3.20;;;6.10;99.90;;;;;;484675;245;27514;-73
2022/04/17 00:38:02;;;;;;;2.70;2.50;;;6.20;99.90;;;;;;484668;245;27486;-73
2022/04/17 00:40:02;;;;;;;3.85;2.90;;;6.10;99.90;;;;;;484606;245;27560;-72
2022/04/17 00:42:06;;;;;;;3.40;3.10;;;6.10;99.90;;;;;;484704;245;28741;-72
2022/04/17 00:46:09;;;;;;;2.60;2.40;;;6.10;99.90;;;;;;484666;245;27496;-72
2022/04/17 00:48:20;;;;;;;3.15;2.85;;;6.10;99.90;;;;;;484673;245;28040;-73
2022/04/17 00:50:21;;;;;;;2.97;2.60;;;6.00;99.90;;;;;;484691;245;27547;-73
2022/04/17 00:52:22;;;;;;;2.60;2.40;;;6.00;99.90;;;;;;484638;245;28022;-73
2022/04/17 00:54:24;;;;;;;2.70;2.50;;;6.00;99.90;;;;;;484665;245;28076;-73
2022/04/17 00:56:25;;;;;;;2.80;2.60;;;6.00;99.90;;;;;;484654;245;27540;-72
2022/04/17 00:58:26;;;;;;;2.80;2.60;;;6.00;99.90;;;;;;484646;245;27682;-72
2022/04/17 01:00:27;;;;;;;2.65;2.50;;;5.90;99.90;;;;;;484680;245;27579;-72
2022/04/17 01:02:29;;;;;;;2.45;2.35;;;5.90;99.90;;;;;;484697;245;27615;-73
2022/04/17 01:04:32;;;;;;;3.42;3.22;;;5.90;99.90;;;;;;484677;245;27522;-76
2022/04/17 01:06:33;;;;;;;2.50;2.40;;;5.90;99.90;;;;;;484666;245;27490;-73
2022/04/17 01:08:41;;;;;;;2.87;2.72;;;5.80;99.90;;;;;;484674;245;27535;-73
2022/04/17 01:10:36;;;;;;;3.30;3.00;;;5.80;99.90;;;;;;484190;245;27558;-71
2022/04/17 01:12:37;;;;;;;2.92;2.72;;;5.80;99.90;;;;;;484654;245;27549;-71
2022/04/17 01:14:38;;;;;;;3.12;2.97;;;5.80;99.90;;;;;;484666;245;28026;-71
2022/04/17 01:16:42;;;;;;;3.22;3.03;;;5.70;99.90;;;;;;484656;245;27975;-71
2022/04/17 01:18:43;;;;;;;2.70;2.50;;;5.70;99.90;;;;;;484685;245;27626;-71
2022/04/17 01:20:44;;;;;;;2.60;2.50;;;5.70;99.90;;;;;;484664;245;27508;-71
2022/04/17 01:22:46;;;;;;;3.25;3.05;;;5.60;99.90;;;;;;484683;245;27574;-72
2022/04/17 01:27:06;;;;;;;4.15;3.20;;;5.60;99.90;;;;;;484668;245;27554;-70
2022/04/17 01:29:10;;;;;;;4.12;3.83;;;5.60;99.90;;;;;;484655;245;27659;-71
2022/04/17 01:31:15;;;;;;;3.17;2.97;;;5.50;99.90;;;;;;484516;245;27539;-71
2022/04/17 01:33:16;;;;;;;4.03;3.60;;;5.50;99.90;;;;;;484675;245;27527;-70
2022/04/17 01:35:17;;;;;;;3.03;2.83;;;5.50;99.90;;;;;;484670;245;28015;-70
2022/04/17 01:37:19;;;;;;;3.17;2.97;;;5.50;99.90;;;;;;484643;245;27947;-69
2022/04/17 01:39:20;;;;;;;3.72;3.17;;;5.50;99.90;;;;;;484635;245;28108;-71
2022/04/17 01:41:21;;;;;;;3.65;3.45;;;5.50;99.90;;;;;;484619;245;27645;-74
2022/04/17 01:43:22;;;;;;;2.95;2.75;;;5.50;99.90;;;;;;484665;245;27499;-71
2022/04/17 01:45:24;;;;;;;3.47;3.17;;;5.50;99.90;;;;;;484620;245;27647;-71
2022/04/17 01:47:25;;;;;;;3.00;2.80;;;5.40;99.90;;;;;;484674;245;27488;-71
2022/04/17 01:51:40;;;;;;;3.35;3.05;;;5.40;99.90;;;;;;466309;246;27924;-71
2022/04/17 01:53:38;;;;;;;2.75;2.65;;;5.40;99.90;;;;;;465799;253;27509;-71
2022/04/17 01:55:39;;;;;;;4.60;3.08;;;5.30;99.90;;;;;;465772;255;27447;-71
2022/04/17 01:57:40;;;;;;;2.80;2.60;;;5.30;99.90;;;;;;465772;255;27544;-71
2022/04/17 01:59:44;;;;;;;3.58;3.37;;;5.30;99.90;;;;;;465786;255;27953;-75
2022/04/17 02:01:45;;;;;;;3.10;2.85;;;5.30;99.90;;;;;;465790;255;27540;-71
2022/04/17 02:03:46;;;;;;;3.22;2.60;;;5.30;99.90;;;;;;465851;255;27493;-71
2022/04/17 02:05:47;;;;;;;3.45;3.25;;;5.30;99.90;;;;;;465818;253;27545;-71
2022/04/17 02:07:49;;;;;;;3.03;2.78;;;5.20;99.90;;;;;;465754;255;27472;-71
2022/04/17 02:09:50;;;;;;;3.25;2.95;;;5.20;99.90;;;;;;465762;255;27493;-75
2022/04/17 02:11:53;;;;;;;3.28;2.97;;;5.20;99.90;;;;;;465736;255;27552;-72
2022/04/17 02:13:53;;;;;;;3.40;3.20;;;5.20;99.90;;;;;;465709;255;27570;-72
2022/04/17 02:15:54;;;;;;;2.90;2.70;;;5.20;99.90;;;;;;465785;255;28667;-72
2022/04/17 02:18:01;;;;;;;3.15;2.95;;;5.20;99.90;;;;;;465790;255;27945;-71
2022/04/17 02:20:03;;;;;;;3.40;3.20;;;5.20;99.90;;;;;;465774;255;27480;-73
2022/04/17 02:22:06;;;;;;;3.10;2.90;;;5.20;99.90;;;;;;465792;255;27525;-72
2022/04/17 02:24:07;;;;;;;3.47;3.10;;;5.20;99.90;;;;;;465757;255;27481;-71
2022/04/17 02:26:08;;;;;;;2.78;2.58;;;5.20;99.90;;;;;;465802;255;28063;-73
2022/04/17 02:28:10;;;;;;;2.90;2.70;;;5.20;99.90;;;;;;465788;255;27905;-71
2022/04/17 02:30:11;;;;;;;3.55;3.00;;;5.20;99.90;;;;;;465765;255;27979;-71
2022/04/17 02:32:12;;;;;;;3.80;2.72;;;5.10;99.90;;;;;;465834;253;27466;-72
2022/04/17 02:34:13;;;;;;;2.97;2.65;;;5.10;99.90;;;;;;465805;253;27853;-72
2022/04/17 02:36:16;;;;;;;3.00;2.80;;;5.00;99.90;;;;;;465781;255;27513;-73
2022/04/17 02:38:18;;;;;;;2.75;2.55;;;5.00;99.90;;;;;;465677;255;27565;-70
2022/04/17 02:40:18;;;;;;;2.65;2.45;;;5.00;99.90;;;;;;465703;255;27945;-72
2022/04/17 02:42:20;;;;;;;3.45;2.85;;;5.00;99.90;;;;;;465971;253;27500;-71
2022/04/17 02:44:21;;;;;;;2.83;2.60;;;5.00;99.90;;;;;;465759;255;27481;-73
2022/04/17 02:48:42;;;;;;;2.60;2.40;;;5.00;99.90;;;;;;465741;255;27487;-71
2022/04/17 02:50:43;;;;;;;2.70;2.50;;;5.00;99.90;;;;;;465837;253;27937;-71
2022/04/17 02:52:44;;;;;;;2.70;2.50;;;5.00;99.90;;;;;;467216;254;27885;-71
2022/04/17 02:54:53;;;;;;;3.10;2.85;;;4.90;99.90;;;;;;467206;254;27480;-71
2022/04/17 02:56:52;;;;;;;2.90;2.70;;;4.90;99.90;;;;;;467181;254;27508;-71
2022/04/17 02:58:54;;;;;;;2.62;2.42;;;5.00;99.90;;;;;;467203;254;27580;-71
2022/04/17 03:07:42;;;;;;;2.60;2.47;;;4.80;99.90;;;;;;467186;250;27929;-72
2022/04/17 03:09:44;;;;;;;2.47;2.33;;;4.80;99.90;;;;;;467200;250;27559;-72
2022/04/17 03:11:45;;;;;;;2.80;2.60;;;4.80;99.90;;;;;;467179;254;27459;-70
2022/04/17 03:13:48;;;;;;;3.08;2.87;;;4.80;99.90;;;;;;467165;254;27483;-71
2022/04/17 03:15:47;;;;;;;2.50;2.40;;;4.70;99.90;;;;;;467161;254;27881;-71
2022/04/17 03:19:53;;;;;;;2.85;2.60;;;4.80;99.90;;;;;;460575;249;27584;-71
2022/04/17 03:21:54;;;;;;;2.70;2.50;;;4.80;99.90;;;;;;460246;258;27594;-72
2022/04/17 03:23:56;;;;;;;2.72;2.55;;;4.80;99.90;;;;;;460222;258;28317;-72
2022/04/17 03:25:58;;;;;;;2.60;2.50;;;4.80;99.90;;;;;;460231;258;28086;-71
2022/04/17 03:28:00;;;;;;;2.15;2.05;;;4.80;99.90;;;;;;460259;258;27608;-71
2022/04/17 03:30:04;;;;;;;2.53;2.42;;;4.80;99.90;;;;;;460226;258;27991;-71
2022/04/17 03:32:05;;;;;;;2.33;2.22;;;4.80;99.90;;;;;;460251;258;28100;-72
2022/04/17 03:34:12;;;;;;;2.35;2.25;;;4.80;99.90;;;;;;460034;258;28208;-74
2022/04/17 03:36:13;;;;;;;3.10;2.80;;;4.70;99.90;;;;;;460229;258;27683;-71
2022/04/17 03:38:15;;;;;;;3.10;2.92;;;4.70;99.90;;;;;;460232;258;27549;-72
2022/04/17 03:40:16;;;;;;;3.92;3.40;;;4.70;99.90;;;;;;460220;258;27587;-71
2022/04/17 03:42:18;;;;;;;3.40;3.10;;;4.70;99.90;;;;;;460253;258;27651;-71
2022/04/17 03:44:19;;;;;;;3.35;2.92;;;4.70;99.90;;;;;;460229;258;28052;-71
2022/04/17 03:46:20;;;;;;;3.37;3.17;;;4.70;99.90;;;;;;460242;258;28185;-71
2022/04/17 03:48:21;;;;;;;3.50;3.22;;;4.70;99.90;;;;;;460249;258;28084;-71
2022/04/17 03:50:23;;;;;;;4.12;3.33;;;4.70;99.90;;;;;;460270;258;28098;-72
2022/04/17 03:52:24;;;;;;;4.62;3.67;;;4.70;99.90;;;;;;460224;258;27647;-71
2022/04/17 03:54:25;;;;;;;3.85;3.50;;;4.70;99.90;;;;;;460279;258;28197;-71
2022/04/17 03:56:26;;;;;;;3.62;3.30;;;4.70;99.90;;;;;;460252;258;28031;-70
2022/04/17 03:58:28;;;;;;;3.47;3.17;;;4.70;99.90;;;;;;460255;258;27581;-72
2022/04/17 04:00:29;;;;;;;3.40;3.20;;;4.70;99.90;;;;;;460242;258;27631;-73
2022/04/17 04:02:30;;;;;;;3.30;3.00;;;4.70;99.90;;;;;;460235;258;27618;-72
2022/04/17 04:04:31;;;;;;;3.22;2.92;;;4.70;99.90;;;;;;460218;258;27735;-72
2022/04/17 04:06:33;;;;;;;4.57;3.65;;;4.60;99.90;;;;;;460220;258;27654;-71
2022/04/17 04:08:34;;;;;;;3.80;3.10;;;4.70;99.90;;;;;;460227;258;27568;-71
2022/04/17 04:10:35;;;;;;;3.15;2.95;;;4.70;99.90;;;;;;460224;258;28157;-73
2022/04/17 04:12:36;;;;;;;3.42;3.12;;;4.60;99.90;;;;;;460225;258;28020;-71
2022/04/17 04:14:38;;;;;;;3.50;3.30;;;4.60;99.90;;;;;;460226;258;27600;-72
2022/04/17 04:16:40;;;;;;;4.25;3.95;;;4.60;99.90;;;;;;460104;258;27687;-71
2022/04/17 04:18:40;;;;;;;3.25;2.95;;;4.60;99.90;;;;;;460241;258;27605;-72
2022/04/17 04:20:42;;;;;;;3.22;3.03;;;4.60;99.90;;;;;;459184;258;27684;-72
2022/04/17 04:22:43;;;;;;;3.10;2.90;;;4.60;99.90;;;;;;458965;259;27555;-71
2022/04/17 04:24:44;;;;;;;2.92;2.70;;;4.60;99.90;;;;;;458953;259;27600;-72
2022/04/17 04:28:32;;;;;;;3.33;3.05;;;4.60;99.90;;;;;;458983;259;27658;-71
2022/04/17 04:28:47;;;;;;;3.35;2.85;;;4.60;99.90;;;;;;458553;259;28017;-70
2022/04/17 04:30:48;;;;;;;3.37;3.17;;;4.60;99.90;;;;;;458854;259;28075;-72
2022/04/17 04:32:52;;;;;;;3.33;2.55;;;4.60;99.90;;;;;;458877;259;28020;-72
2022/04/17 04:34:50;;;;;;;3.33;3.03;;;4.60;99.90;;;;;;458854;259;27706;-71
2022/04/17 04:36:52;;;;;;;3.20;3.00;;;4.60;99.90;;;;;;458991;259;27660;-72
2022/04/17 04:38:53;;;;;;;3.45;3.15;;;4.60;99.90;;;;;;459014;259;27567;-70
2022/04/17 04:40:54;;;;;;;3.50;3.20;;;4.50;99.90;;;;;;459003;259;27676;-72
2022/04/17 04:42:58;;;;;;;3.67;3.22;;;4.50;99.90;;;;;;458860;259;27552;-71
2022/04/17 04:47:22;;;;;;;3.30;3.00;;;4.60;99.90;;;;;;458987;259;27558;-71
2022/04/17 04:49:32;;;;;;;3.65;3.40;;;4.60;99.90;;;;;;458987;259;27686;-71
2022/04/17 04:51:38;;;;;;;6.10;3.53;;;4.50;99.90;;;;;;458946;259;27602;-71
2022/04/17 04:53:38;;;;;;;3.90;3.30;;;4.60;99.90;;;;;;458962;259;27752;-74
2022/04/17 04:55:42;;;;;;;5.50;3.72;;;4.60;99.90;;;;;;458914;259;27559;-71
2022/04/17 04:57:44;;;;;;;4.87;3.83;;;4.60;99.90;;;;;;458953;259;27683;-71
2022/04/17 04:59:48;;;;;;;4.15;3.95;;;4.60;99.90;;;;;;458977;259;27585;-71
2022/04/17 05:01:49;;;;;;;3.85;3.55;;;4.60;99.90;;;;;;458841;259;27562;-72
2022/04/17 05:03:50;;;;;;;3.67;3.42;;;4.60;99.90;;;;;;458975;259;27588;-71
2022/04/17 05:05:58;;;;;;;4.95;3.70;;;4.60;99.90;;;;;;458808;259;28091;-70
2022/04/17 05:07:59;;;;;;;3.65;3.35;;;4.60;99.90;;;;;;458728;259;27586;-71
2022/04/17 05:10:09;;;;;;;4.15;3.55;;;4.60;99.90;;;;;;458908;259;27680;-71
2022/04/17 05:12:11;;;;;;;3.42;3.22;;;4.60;99.90;;;;;;458976;259;27676;-71
2022/04/17 05:14:12;;;;;;;4.85;3.60;;;4.60;99.90;;;;;;458988;258;27588;-71
2022/04/17 05:16:13;;;;;;;3.47;3.20;;;4.60;99.90;;;;;;458649;259;28066;-70
2022/04/17 05:18:14;;;;;;;4.18;3.42;;;4.60;99.90;;;;;;458806;259;27991;-71
2022/04/17 05:20:20;;;;;;;3.10;2.90;;;4.60;99.90;;;;;;458979;259;27742;-72
2022/04/17 05:22:22;;;;;;;3.45;3.15;;;4.60;99.90;;;;;;458765;259;27567;-71
2022/04/17 05:24:21;;;;;;;3.87;3.58;;;4.70;99.90;;;;;;458712;259;27589;-71
2022/04/17 05:26:23;;;;;;;3.58;3.25;;;4.70;99.90;;;;;;458965;259;28055;-71
2022/04/17 05:28:24;;;;;;;3.60;3.30;;;4.70;99.90;;;;;;458975;259;28131;-72
2022/04/17 05:30:25;;;;;;;4.53;3.80;;;4.70;99.90;;;;;;458980;259;27646;-72
2022/04/17 05:32:26;;;;;;;3.80;3.35;;;4.80;99.90;;;;;;458982;259;27693;-71
2022/04/17 05:34:28;;;;;;;3.65;3.35;;;4.80;99.90;;;;;;458986;259;27606;-71
2022/04/17 05:36:29;;;;;;;4.20;3.60;;;4.80;99.90;;;;;;458980;259;27637;-71
2022/04/17 05:38:31;;;;;;;4.87;3.25;;;4.80;99.90;;;;;;458959;259;27591;-72
2022/04/17 05:40:32;;;;;;;3.90;3.60;;;4.90;99.90;;;;;;458819;259;27633;-71
2022/04/17 05:42:34;;;;;;;5.22;3.70;;;4.90;99.90;;;;;;458973;259;27703;-72
2022/04/17 05:44:38;;;;;;;3.33;3.12;;;5.00;99.90;;;;;;458964;259;28095;-70
2022/04/17 05:46:41;;;;;;;3.90;3.60;;;5.00;99.90;;;;;;458986;259;27641;-72
2022/04/17 05:48:40;;;;;;;3.30;3.10;;;5.00;99.90;;;;;;458552;259;27671;-72
2022/04/17 05:50:42;;;;;;;3.35;3.15;;;5.00;99.90;;;;;;458994;259;28296;-73
2022/04/17 05:52:46;;;;;;;3.60;3.30;;;5.10;99.90;;;;;;458915;259;28019;-71
2022/04/17 05:54:47;;;;;;;3.40;3.10;;;5.20;99.90;;;;;;458999;259;27635;-70
2022/04/17 05:56:48;;;;;;;4.15;3.85;;;5.30;99.90;;;;;;458676;259;27599;-71
2022/04/17 05:58:50;;;;;;;5.20;3.65;;;5.30;99.90;;;;;;458978;259;27715;-73
2022/04/17 06:00:55;;;;;;;3.50;3.25;;;5.40;99.90;;;;;;458453;259;27615;-73
2022/04/17 06:02:56;;;;;;;3.50;3.20;;;5.40;99.90;;;;;;458801;259;27567;-71
2022/04/17 06:04:58;;;;;;;7.82;3.20;;;5.40;99.90;;;;;;458998;259;27668;-70
2022/04/17 06:06:59;;;;;;;3.53;3.20;;;5.50;99.90;;;;;;458954;259;27567;-70
2022/04/17 06:09:02;;;;;;;4.35;3.25;;;5.50;99.90;;;;;;459001;258;27687;-73
2022/04/17 06:11:03;;;;;;;3.40;3.10;;;5.50;99.90;;;;;;458998;259;27559;-71
2022/04/17 06:13:11;;;;;;;3.70;3.40;;;5.60;99.90;;;;;;458871;259;28048;-70
2022/04/17 06:15:12;;;;;;;4.10;3.80;;;5.60;99.90;;;;;;458962;259;27591;-74
2022/04/17 06:17:13;;;;;;;4.18;3.53;;;5.70;99.90;;;;;;459015;259;28019;-72
2022/04/17 06:19:15;;;;;;;4.05;3.53;;;5.70;99.90;;;;;;458975;259;28078;-70
2022/04/17 06:21:18;;;;;;;5.43;3.33;;;5.80;99.90;;;;;;458958;259;27636;-70
2022/04/17 06:23:17;;;;;;;3.70;3.40;;;5.80;99.90;;;;;;458963;259;27684;-71
2022/04/17 06:25:19;;;;;;;4.20;3.80;;;5.90;99.90;;;;;;458974;259;27579;-70
2022/04/17 06:27:20;;;;;;;4.20;3.90;;;6.00;99.90;;;;;;458795;259;27572;-71
2022/04/17 06:29:21;;;;;;;3.70;3.40;;;6.10;99.90;;;;;;459022;259;28212;-71
2022/04/17 06:31:22;;;;;;;3.90;3.30;;;6.10;99.90;;;;;;458972;259;28284;-74
2022/04/17 06:33:24;;;;;;;3.90;3.50;;;6.20;99.90;;;;;;459016;259;27723;-70
2022/04/17 06:35:25;;;;;;;3.35;3.10;;;6.10;99.90;;;;;;458876;259;27614;-71
2022/04/17 06:37:35;;;;;;;3.22;3.10;;;6.20;99.90;;;;;;459035;259;27641;-70
2022/04/17 06:39:37;;;;;;;4.20;3.90;;;6.30;99.90;;;;;;459015;259;27571;-71
2022/04/17 06:41:38;;;;;;;4.18;3.78;;;6.40;99.90;;;;;;459020;259;27604;-71
2022/04/17 06:43:39;;;;;;;3.47;3.20;;;6.40;99.90;;;;;;459071;259;27606;-70
2022/04/17 06:47:51;;;;;;;4.65;3.53;;;6.40;99.90;;;;;;459045;259;27568;-70
2022/04/17 06:49:53;;;;;;;3.30;3.00;;;6.60;99.90;;;;;;459025;259;28039;-73
2022/04/17 06:51:54;;;;;;;3.53;3.33;;;6.60;99.90;;;;;;459029;259;27708;-70
2022/04/17 06:53:55;;;;;;;3.00;2.80;;;6.60;99.90;;;;;;459046;259;28982;-72
2022/04/17 06:55:57;;;;;;;3.22;2.92;;;6.70;99.90;;;;;;458974;259;28068;-72
2022/04/17 06:58:04;;;;;;;3.33;3.13;;;6.70;99.90;;;;;;459058;259;27609;-72
2022/04/17 07:00:05;;;;;;;3.27;2.97;;;6.70;99.90;;;;;;458402;259;28960;-71
2022/04/17 07:02:12;;;;;;;6.03;3.30;;;6.80;99.90;;;;;;459041;259;28995;-72
2022/04/17 07:04:13;;;;;;;3.13;2.90;;;6.80;99.90;;;;;;459036;258;27648;-77
2022/04/17 07:06:15;;;;;;;3.97;3.67;;;6.90;99.90;;;;;;459015;259;28032;-72
2022/04/17 07:08:22;;;;;;;5.43;4.93;;;7.00;99.90;;;;;;459019;259;28093;-72
2022/04/17 07:10:23;;;;;;;3.53;3.33;;;7.10;99.90;;;;;;459007;259;28951;-72
2022/04/17 07:12:24;;;;;;;3.62;3.35;;;7.20;99.90;;;;;;459009;258;28390;-70
2022/04/17 07:14:26;;;;;;;3.40;3.17;;;7.20;99.90;;;;;;459022;259;27571;-70
2022/04/17 07:16:27;;;;;;;3.23;3.03;;;7.30;99.90;;;;;;459046;259;27656;-71
2022/04/17 07:18:28;;;;;;;3.57;3.27;;;7.30;99.90;;;;;;459042;259;28141;-71
2022/04/17 07:20:30;;;;;;;3.50;3.20;;;7.30;99.90;;;;;;459044;259;27681;-73
2022/04/17 07:22:31;;;;;;;3.33;3.03;;;7.40;99.90;;;;;;458987;259;28063;-71
2022/04/17 07:24:32;;;;;;;4.90;3.47;;;7.40;99.90;;;;;;458877;259;28084;-70
2022/04/17 07:26:33;;;;;;;3.83;3.50;;;7.40;99.90;;;;;;458889;259;28590;-70
2022/04/17 07:28:47;;;;;;;3.07;2.87;;;7.60;99.90;;;;;;459028;259;28666;-71
2022/04/17 07:30:48;;;;;;;3.50;3.20;;;7.60;99.90;;;;;;459048;259;28047;-70
2022/04/17 07:32:49;;;;;;;3.60;3.40;;;7.60;99.90;;;;;;459001;259;28109;-71
2022/04/17 07:34:50;;;;;;;3.73;3.43;;;7.70;99.90;;;;;;459029;259;28041;-70
2022/04/17 07:36:52;;;;;;;3.20;3.00;;;7.60;99.90;;;;;;459039;259;28528;-70
2022/04/17 07:45:31;;;;;;;2.93;2.73;;;7.80;99.90;;;;;;498621;237;28234;-70
2022/04/17 07:47:32;;;;;;;2.83;2.63;;;7.80;99.90;;;;;;487940;242;27990;-70
2022/04/17 07:49:33;;;;;;;4.77;3.23;;;7.90;99.90;;;;;;480001;246;27994;-71
2022/04/17 07:51:35;;;;;;;3.23;3.00;;;8.20;99.90;;;;;;498526;238;27907;-71
2022/04/17 07:53:36;;;;;;;3.10;2.90;;;8.20;99.90;;;;;;487911;242;27958;-71
2022/04/17 07:55:43;;;;;;;3.13;2.93;;;8.20;99.90;;;;;;498542;238;28220;-71
2022/04/17 08:00:02;;;;;;;3.40;2.90;;;8.20;99.90;;;;;;498553;238;27822;-71
2022/04/17 08:02:11;;;;;;;3.00;2.80;;;8.20;99.90;;;;;;487885;242;28052;-71
2022/04/17 08:04:12;;;;;;;3.00;2.80;;;8.30;99.90;;;;;;479455;247;28108;-72
2022/04/17 08:06:15;;;;;;;2.83;2.63;;;8.30;99.90;;;;;;498535;238;27930;-71
2022/04/17 08:08:25;;;;;;;2.87;2.70;;;8.40;99.90;;;;;;487872;242;27565;-71
2022/04/17 08:10:26;;;;;;;3.10;2.90;;;8.50;99.90;;;;;;498527;238;27938;-71
2022/04/17 08:12:27;;;;;;;2.80;2.30;;;8.50;99.90;;;;;;487933;242;28012;-70
2022/04/17 08:14:29;;;;;;;3.10;2.90;;;8.50;99.90;;;;;;498521;238;27803;-73
2022/04/17 08:16:42;;;;;;;2.90;2.70;;;8.60;99.00;;;;;;487945;242;28340;-72
2022/04/17 08:18:43;;;;;;;3.27;3.00;;;8.70;98.70;;;;;;498579;238;28204;-72
2022/04/17 08:20:51;;;;;;;3.30;3.00;;;8.80;99.00;;;;;;487942;242;27987;-72
2022/04/17 08:22:53;;;;;;;3.23;3.03;;;8.70;98.70;;;;;;498535;238;27823;-72
2022/04/17 08:25:02;;;;;;;3.90;3.40;;;8.90;99.60;;;;;;487931;242;27867;-73
2022/04/17 08:27:03;;;;;;;4.57;2.70;;;9.00;98.20;;;;;;498564;238;27928;-72
2022/04/17 08:29:17;;;;;;;3.50;3.20;;;9.00;98.70;;;;;;487921;242;27890;-72
2022/04/17 08:31:16;;;;;;;2.77;2.57;;;9.10;98.20;;;;;;498417;238;27793;-73
2022/04/17 08:35:22;;;;;;;3.63;2.73;;;9.10;98.50;;;;;;498578;238;27899;-72
2022/04/17 08:37:32;;;;;;;5.23;2.37;;;9.00;97.00;;;;;;487940;242;27976;-72
2022/04/17 08:39:33;;;;;;;2.93;2.77;;;9.00;97.90;;;;;;498539;238;27820;-71
2022/04/17 08:41:45;;;;;;;2.70;2.50;;;9.10;97.80;;;;;;487948;242;28149;-71
2022/04/17 08:43:45;;;;;;;2.20;2.10;;;9.30;96.80;;;;;;498562;238;27897;-71
2022/04/17 08:45:49;;;;;;;2.80;2.60;;;9.30;96.10;;;;;;483461;242;28245;-73
2022/04/17 08:47:55;;;;;;;3.20;2.87;;;9.20;96.30;;;;;;481565;247;28368;-73
2022/04/17 08:49:56;;;;;;;5.47;3.00;;;9.30;96.30;;;;;;481692;245;27917;-70
2022/04/17 08:52:01;;;;;;;3.60;3.40;;;9.40;96.40;;;;;;481670;245;27614;-73
2022/04/17 08:54:02;;;;;;;4.40;3.57;;;9.40;96.00;;;;;;481636;247;28018;-72
2022/04/17 08:56:09;;;;;;;3.00;2.80;;;9.60;96.40;;;;;;481596;245;27490;-73
2022/04/17 08:58:11;;;;;;;2.80;2.60;;;9.70;96.40;;;;;;481566;247;28034;-72
2022/04/17 09:00:14;;;;;;;2.80;2.60;;;9.60;97.60;;;;;;481652;245;27857;-73
2022/04/17 09:02:16;;;;;;;2.40;2.20;;;9.70;97.90;;;;;;481589;247;27392;-73
2022/04/17 09:04:21;;;;;;;5.03;2.07;;;9.70;98.50;;;;;;491401;241;28445;-73
2022/04/17 09:06:22;;;;;;;2.50;2.30;;;9.80;99.20;;;;;;491473;242;27809;-70
2022/04/17 09:12:46;;;;;;;2.63;2.43;;;10.00;97.20;;;;;;490493;242;27990;-71
2022/04/17 09:14:47;;;;;;;2.83;2.53;;;10.00;97.00;;;;;;484566;245;27936;-71
2022/04/17 09:16:49;;;;;;;2.50;2.30;;;10.10;93.90;;;;;;483997;245;27898;-73
2022/04/17 09:18:50;;;;;;;2.20;2.10;;;10.20;94.00;;;;;;484700;239;27940;-72
2022/04/17 09:20:52;;;;;;;2.70;2.07;;;10.20;94.00;;;;;;487506;244;28133;-74
2022/04/17 09:22:53;;;;;;;2.37;2.20;;;10.30;95.60;;;;;;487513;244;28417;-74
2022/04/17 09:24:54;;;;;;;2.90;2.70;;;10.30;93.40;;;;;;487508;243;28358;-75
2022/04/17 09:26:55;;;;;;;2.37;2.27;;;10.20;94.10;;;;;;487548;244;28878;-75
2022/04/17 09:28:57;;;;;;;2.10;1.77;;;10.40;93.60;;;;;;469338;241;36441;-73
2022/04/17 09:30:59;;;;;;;2.37;2.10;;;10.40;95.20;;;;;;477757;248;27984;-75
2022/04/17 09:32:59;;;;;;;2.30;2.10;;;10.50;95.20;;;;;;477681;248;28431;-74
2022/04/17 09:35:00;;;;;;;2.10;2.00;;;10.60;93.50;;;;;;477717;248;28603;-74
2022/04/17 09:37:02;;;;;;;2.33;2.00;;;10.60;92.60;;;;;;477804;248;28498;-73
2022/04/17 09:39:03;;;;;;;3.17;2.23;;;10.60;92.10;;;;;;477806;248;27530;-74
2022/04/17 09:41:06;;;;;;;2.43;2.23;;;10.50;92.70;;;;;;477772;248;27920;-75
2022/04/17 09:43:06;;;;;;;2.17;2.07;;;10.70;93.10;;;;;;477522;248;27854;-73
2022/04/17 09:45:08;;;;;;;3.20;2.30;;;10.80;93.10;;;;;;477822;248;27879;-74
2022/04/17 09:47:12;;;;;;;2.70;2.17;;;10.80;92.40;;;;;;477781;249;28260;-74
2022/04/17 09:49:10;;;;;;;2.30;2.10;;;10.90;93.40;;;;;;476076;242;28328;-72
2022/04/17 09:51:11;;;;;;;2.70;2.50;;;10.90;93.80;;;;;;485488;245;28096;-74
2022/04/17 09:53:19;;;;;;;2.30;2.20;;;10.80;93.70;;;;;;485691;244;28220;-74
2022/04/17 09:55:20;;;;;;;2.93;2.73;;;11.00;94.30;;;;;;485730;244;28022;-73
2022/04/17 09:57:21;;;;;;;2.43;2.23;;;11.10;94.10;;;;;;485676;244;27958;-73
2022/04/17 09:59:23;;;;;;;2.27;2.10;;;11.10;94.00;;;;;;470029;238;28283;-76
2022/04/17 10:01:24;;;;;;;2.33;2.00;;;11.10;94.00;;;;;;469478;253;28230;-73
2022/04/17 10:03:25;;;;;;;2.20;2.00;;;11.30;92.60;;;;;;469471;253;28038;-74
2022/04/17 10:05:26;;;;;;;2.63;2.43;;;11.30;92.30;;;;;;469513;253;28772;-73
2022/04/17 10:07:28;;;;;;;2.60;2.10;;;11.20;92.90;;;;;;469489;253;28440;-74
2022/04/17 10:09:29;;;;;;;2.33;2.10;;;11.20;93.30;;;;;;473258;246;28607;-74
2022/04/17 10:11:30;;;;;;;6.10;2.30;;;11.30;93.60;;;;;;467110;254;27947;-73
2022/04/17 10:13:32;;;;;;;2.37;2.20;;;11.30;93.50;;;;;;473616;251;28270;-74
2022/04/17 10:15:33;;;;;;;4.40;1.90;;;11.30;92.40;;;;;;473648;251;28216;-73
2022/04/17 10:17:34;;;;;;;2.20;2.10;;;11.30;93.80;;;;;;473572;251;28098;-74
2022/04/17 10:19:35;;;;;;;2.27;2.07;;;11.50;93.40;;;;;;486445;242;28117;-75
2022/04/17 10:21:36;;;;;;;5.80;2.43;;;11.70;90.50;;;;;;489871;243;28092;-75
2022/04/17 10:23:42;;;;;;;2.17;2.03;;;11.60;90.50;;;;;;489796;243;28276;-75
2022/04/17 10:25:39;;;;;;;2.00;1.90;;;11.60;91.10;;;;;;489515;242;28314;-72
2022/04/17 10:30:07;;;;;;;2.20;2.00;;;11.50;90.80;;;;;;475672;250;29731;-72
2022/04/17 10:32:08;;;;;;;2.40;2.20;;;11.60;91.20;;;;;;475744;250;28706;-74
2022/04/17 10:34:10;;;;;;;2.40;2.20;;;11.60;91.90;;;;;;475738;250;28757;-75
2022/04/17 10:36:11;;;;;;;2.13;2.00;;;11.60;93.30;;;;;;475724;250;28845;-74
2022/04/17 10:38:12;;;;;;;2.57;2.37;;;11.60;92.50;;;;;;475700;250;28499;-74
2022/04/17 10:40:13;;;;;;;4.13;3.00;;;11.60;90.80;;;;;;475741;250;28250;-74
2022/04/17 10:42:14;;;;;;;3.20;2.70;;;11.70;91.60;;;;;;475732;250;28233;-73
2022/04/17 10:44:16;;;;;;;3.67;2.30;;;11.80;90.50;;;;;;475731;250;28258;-74
2022/04/17 10:46:17;;;;;;;3.10;2.63;;;11.90;90.50;;;;;;475720;250;28428;-73
2022/04/17 10:48:18;;;;;;;3.90;3.03;;;11.80;91.90;;;;;;475742;250;28241;-74
2022/04/17 10:50:20;;;;;;;5.00;3.23;;;12.00;89.80;;;;;;475706;250;28465;-73
2022/04/17 10:52:21;;;;;;;4.90;3.10;;;11.90;90.50;;;;;;475755;250;28475;-73
2022/04/17 10:54:23;;;;;;;2.57;2.37;;;;;;;;;;475732;250;28864;-73
2022/04/17 10:56:24;;;;;;;2.20;2.10;;;11.90;86.20;;;;;;475761;250;27426;-73
2022/04/17 10:58:26;;;;;;;2.20;2.00;;;12.00;88.80;;;;;;475753;250;28795;-73
2022/04/17 11:00:28;;;;;;;2.30;2.20;;;12.10;87.70;;;;;;475734;250;29840;-73
2022/04/17 11:02:30;;;;;;;3.13;2.13;;;;;;;;;;475704;250;28380;-74
2022/04/17 11:04:31;;;;;;;2.80;1.93;;;11.90;89.40;;;;;;475701;250;27110;-74
2022/04/17 11:06:32;;;;;;;2.70;2.07;;;11.90;89.50;;;;;;475692;250;28435;-74
2022/04/17 11:08:34;;;;;;;2.60;2.40;;;;;;;;;;475688;250;28646;-75
2022/04/17 11:10:36;;;;;;;2.53;2.33;;;12.40;90.20;;;;;;475739;250;27573;-73
2022/04/17 11:12:37;;;;;;;2.47;2.27;;;12.30;90.50;;;;;;475702;250;28730;-73
2022/04/17 11:14:41;;;;;;;4.30;3.10;;;12.20;91.10;;;;;;475693;250;28270;-74
2022/04/17 11:16:42;;;;;;;2.90;2.60;;;12.30;92.00;;;;;;475673;250;28172;-73
2022/04/17 11:18:44;;;;;;;3.43;2.50;;;12.50;89.20;;;;;;475682;250;28946;-74
2022/04/17 11:20:45;;;;;;;2.50;2.30;;;12.60;87.60;;;;;;475657;250;28785;-77
2022/04/17 11:22:47;;;;;;;2.47;2.20;;;12.40;86.30;;;;;;475672;250;28889;-74